Time;durP1;ratioP1;P1;durP2;ratioP2;P2;SDS_P1;SDS_P2;PMS_P1;PMS_P2;Temp;Humidity;BMP_temperature;BMP_pressure;BME280_temperature;BME280_humidity;BME280_pressure;Samples;Min_cycle;Max_cycle;Signal;HPM_P1;HPM_P2
2021/12/22 00:00:15;;;;;;;27.73;13.47;;;-3.60;99.90;;;;;;5057780;28;20214;-78
2021/12/22 00:02:46;;;;;;;27.30;13.77;;;-3.60;99.90;;;;;;5075433;28;20298;-78
2021/12/22 00:05:18;;;;;;;23.23;13.03;;;-3.60;99.90;;;;;;5057517;28;20186;-78
2021/12/22 00:07:44;;;;;;;22.07;12.37;;;-3.60;99.90;;;;;;5076513;28;20633;-78
2021/12/22 00:10:10;;;;;;;19.67;12.23;;;-3.60;99.90;;;;;;5076798;28;20617;-78
2021/12/22 00:12:36;;;;;;;23.27;12.80;;;-3.60;99.90;;;;;;5076071;28;20199;-78
2021/12/22 00:15:03;;;;;;;19.83;12.63;;;-3.60;99.90;;;;;;5075407;28;20653;-78
2021/12/22 00:17:29;;;;;;;22.17;11.70;;;-3.60;99.90;;;;;;5056783;28;20210;-78
2021/12/22 00:19:54;;;;;;;19.40;11.90;;;-3.60;99.90;;;;;;5075592;28;20175;-78
2021/12/22 00:22:20;;;;;;;25.53;12.27;;;-3.60;99.90;;;;;;5075693;28;20664;-78
2021/12/22 00:24:45;;;;;;;22.97;12.67;;;-3.60;99.90;;;;;;5057176;28;20224;-78
2021/12/22 00:27:11;;;;;;;19.83;11.23;;;-3.60;99.90;;;;;;5057986;28;20733;-79
2021/12/22 00:29:36;;;;;;;20.83;11.60;;;-3.70;99.90;;;;;;5076274;28;20209;-78
2021/12/22 00:32:16;;;;;;;22.60;12.07;;;-3.70;99.90;;;;;;5075152;28;20278;-78
2021/12/22 00:34:51;;;;;;;19.87;12.23;;;-3.80;99.90;;;;;;5075235;28;20533;-78
2021/12/22 00:37:22;;;;;;;20.63;12.50;;;-3.80;99.90;;;;;;5074943;28;20193;-79
2021/12/22 00:39:49;;;;;;;20.60;11.63;;;-3.80;99.90;;;;;;5074712;28;20159;-78
2021/12/22 00:42:16;;;;;;;19.97;11.80;;;-3.80;99.90;;;;;;5074438;28;20186;-78
2021/12/22 00:44:43;;;;;;;19.43;12.07;;;-3.70;99.90;;;;;;5074725;28;20213;-78
2021/12/22 00:47:09;;;;;;;19.20;11.30;;;-3.70;99.90;;;;;;5056412;28;20668;-78
2021/12/22 00:49:36;;;;;;;18.40;11.13;;;-3.80;99.90;;;;;;5056747;28;20214;-78
2021/12/22 00:52:02;;;;;;;16.90;10.87;;;-3.80;99.90;;;;;;5056038;28;20301;-78
2021/12/22 00:54:28;;;;;;;18.77;10.73;;;-3.80;99.90;;;;;;5074252;28;20636;-78
2021/12/22 00:57:00;;;;;;;19.87;10.97;;;-3.80;99.90;;;;;;5074647;28;20175;-79
2021/12/22 00:59:26;;;;;;;17.50;10.63;;;-3.80;99.90;;;;;;5056835;28;20186;-79
2021/12/22 01:01:52;;;;;;;21.20;11.80;;;-3.80;99.90;;;;;;5057092;28;20210;-78
2021/12/22 01:04:18;;;;;;;16.60;11.13;;;-3.80;99.90;;;;;;5093166;23;20231;-77
2021/12/22 01:06:44;;;;;;;17.13;10.27;;;-3.80;99.90;;;;;;5034664;28;20179;-77
2021/12/22 01:09:09;;;;;;;19.83;11.40;;;-3.80;99.90;;;;;;5052637;28;20235;-77
2021/12/22 01:11:35;;;;;;;20.40;10.87;;;-3.80;99.90;;;;;;5034780;28;20676;-77
2021/12/22 01:14:02;;;;;;;16.27;9.67;;;-3.80;99.90;;;;;;5034024;28;20175;-77
2021/12/22 01:16:28;;;;;;;17.97;10.50;;;-3.90;99.90;;;;;;5052495;28;20317;-78
2021/12/22 01:18:54;;;;;;;16.97;10.53;;;-3.90;99.90;;;;;;5052894;28;20283;-77
2021/12/22 01:21:31;;;;;;;19.20;11.07;;;-3.80;99.90;;;;;;5052804;28;20168;-77
2021/12/22 01:24:32;;;;;;;20.17;11.43;;;-3.90;99.90;;;;;;5035362;28;20187;-77
2021/12/22 01:26:53;;;;;;;22.30;11.17;;;-3.90;99.90;;;;;;5052166;28;20229;-77
2021/12/22 01:29:19;;;;;;;16.70;10.23;;;-3.90;99.90;;;;;;5053440;28;20661;-77
2021/12/22 01:31:45;;;;;;;20.27;10.63;;;-3.80;99.90;;;;;;5035571;28;20572;-79
2021/12/22 01:34:11;;;;;;;20.87;9.87;;;-3.90;99.90;;;;;;5037641;28;20275;-77
2021/12/22 01:36:39;;;;;;;19.47;10.63;;;-4.00;99.90;;;;;;5039526;28;20626;-77
2021/12/22 01:39:05;;;;;;;18.23;10.90;;;-3.90;99.90;;;;;;5039310;28;20196;-78
2021/12/22 01:41:31;;;;;;;17.97;10.57;;;-4.00;99.90;;;;;;5056630;28;20548;-78
2021/12/22 01:43:57;;;;;;;20.07;10.47;;;-4.00;99.90;;;;;;5056368;28;20194;-77
2021/12/22 01:49:09;;;;;;;20.27;11.43;;;-4.00;99.90;;;;;;5038148;28;20198;-78
2021/12/22 01:49:50;;;;;;;16.23;10.30;;;-4.00;99.90;;;;;;5055896;28;20766;-78
2021/12/22 01:52:17;;;;;;;19.43;10.37;;;-4.00;99.90;;;;;;5038300;28;20180;-78
2021/12/22 01:55:05;;;;;;;17.83;10.67;;;-4.00;99.90;;;;;;5055987;28;20211;-77
2021/12/22 01:57:33;;;;;;;17.17;10.53;;;-4.00;99.90;;;;;;5038139;28;20539;-78
2021/12/22 02:00:01;;;;;;;21.90;10.03;;;-4.00;99.90;;;;;;5038205;28;20199;-78
2021/12/22 02:02:28;;;;;;;17.90;10.07;;;-4.00;99.90;;;;;;5055943;28;20176;-78
2021/12/22 02:04:53;;;;;;;15.70;9.83;;;-4.00;99.90;;;;;;5037805;28;20230;-78
2021/12/22 02:07:19;;;;;;;15.53;8.97;;;-4.10;99.90;;;;;;5055915;28;20274;-78
2021/12/22 02:10:03;;;;;;;18.03;9.70;;;-4.10;99.90;;;;;;5056144;28;20203;-77
2021/12/22 02:12:32;;;;;;;18.73;9.67;;;-4.20;99.90;;;;;;5056082;28;20168;-77
2021/12/22 02:14:58;;;;;;;16.93;9.30;;;-4.10;99.90;;;;;;5055905;28;20578;-78
2021/12/22 02:17:26;;;;;;;19.20;9.17;;;-4.20;99.90;;;;;;5037810;28;20180;-77
2021/12/22 02:19:51;;;;;;;17.80;9.00;;;-4.10;99.90;;;;;;5055261;28;20528;-78
2021/12/22 02:22:18;;;;;;;14.53;9.00;;;-4.20;99.90;;;;;;5037710;28;20184;-78
2021/12/22 02:24:58;;;;;;;17.33;9.30;;;-4.20;99.90;;;;;;5056484;28;20631;-77
2021/12/22 02:27:36;;;;;;;21.40;9.63;;;-4.20;99.90;;;;;;5055474;28;20160;-78
2021/12/22 02:30:06;;;;;;;17.63;9.07;;;-4.20;99.90;;;;;;5055650;28;20223;-78
2021/12/22 02:35:24;;;;;;;16.00;9.03;;;-4.20;99.90;;;;;;5055020;28;20218;-78
2021/12/22 02:37:50;;;;;;;20.53;9.20;;;-4.20;99.90;;;;;;5055426;28;20161;-77
2021/12/22 02:40:18;;;;;;;16.67;9.00;;;-4.20;99.90;;;;;;5055307;28;20249;-77
2021/12/22 02:42:46;;;;;;;15.77;8.90;;;-4.20;99.90;;;;;;5055179;28;20180;-77
2021/12/22 02:45:15;;;;;;;17.23;8.47;;;-4.30;99.90;;;;;;5055098;28;20200;-78
2021/12/22 02:47:41;;;;;;;12.77;7.70;;;-4.30;99.90;;;;;;5054080;28;20246;-78
2021/12/22 02:50:09;;;;;;;16.87;8.57;;;-4.30;99.90;;;;;;5036729;28;20211;-78
2021/12/22 02:52:48;;;;;;;13.60;8.03;;;-4.20;99.90;;;;;;5055101;28;20245;-78
2021/12/22 02:55:13;;;;;;;14.47;7.97;;;-4.20;99.90;;;;;;5037030;28;20222;-78
2021/12/22 02:57:45;;;;;;;15.83;7.70;;;-4.20;99.90;;;;;;5054904;28;20187;-77
2021/12/22 03:03:03;;;;;;;13.33;7.90;;;-4.30;99.90;;;;;;5055347;28;20179;-77
2021/12/22 03:05:29;;;;;;;13.73;7.57;;;-4.30;99.90;;;;;;5034844;28;20225;-78
2021/12/22 03:07:55;;;;;;;12.53;7.70;;;-4.30;99.90;;;;;;5016946;28;20230;-78
2021/12/22 03:10:21;;;;;;;18.57;8.37;;;-4.30;99.90;;;;;;5046548;28;20215;-78
2021/12/22 03:12:55;;;;;;;15.30;7.63;;;-4.30;99.90;;;;;;5036717;28;20280;-77
2021/12/22 03:15:21;;;;;;;13.20;7.57;;;-4.30;99.90;;;;;;5054706;28;20195;-78
2021/12/22 03:17:48;;;;;;;13.40;8.20;;;-4.30;99.90;;;;;;5036713;28;20242;-77
2021/12/22 03:20:15;;;;;;;11.00;7.37;;;-4.40;99.90;;;;;;5036561;28;20199;-77
2021/12/22 03:22:44;;;;;;;10.90;7.07;;;-4.40;99.90;;;;;;5036528;28;20616;-77
2021/12/22 03:25:17;;;;;;;14.20;8.20;;;-4.40;99.90;;;;;;5053938;28;20203;-78
2021/12/22 03:27:45;;;;;;;11.77;7.10;;;-4.40;99.90;;;;;;5054203;28;20164;-78
2021/12/22 03:30:12;;;;;;;11.10;7.40;;;-4.40;99.90;;;;;;5054207;28;20203;-77
2021/12/22 03:32:38;;;;;;;17.23;7.17;;;-4.40;99.90;;;;;;5054631;28;20178;-77
2021/12/22 03:35:04;;;;;;;9.50;6.20;;;-4.40;99.90;;;;;;5054667;28;20199;-77
2021/12/22 03:37:30;;;;;;;10.80;6.60;;;-4.40;99.90;;;;;;5036215;28;20188;-77
2021/12/22 03:39:55;;;;;;;12.60;6.03;;;-4.40;99.90;;;;;;5036482;28;20258;-78
2021/12/22 03:42:21;;;;;;;9.70;6.07;;;-4.40;99.90;;;;;;5054598;28;20271;-77
2021/12/22 03:44:46;;;;;;;11.50;6.13;;;-4.40;99.90;;;;;;5036638;28;20239;-77
2021/12/22 03:47:12;;;;;;;11.80;5.80;;;-4.40;99.90;;;;;;5054340;28;20188;-77
2021/12/22 03:49:38;;;;;;;8.57;6.33;;;-4.40;99.90;;;;;;5054007;28;20208;-77
2021/12/22 03:52:04;;;;;;;9.93;6.10;;;-4.40;99.90;;;;;;5053907;28;20622;-77
2021/12/22 03:54:30;;;;;;;11.93;6.47;;;-4.40;99.90;;;;;;5035854;28;20298;-77
2021/12/22 03:56:55;;;;;;;13.53;5.90;;;-4.40;99.90;;;;;;5035777;28;20223;-77
2021/12/22 03:59:22;;;;;;;13.47;6.77;;;-4.40;99.90;;;;;;5035473;28;20184;-77
2021/12/22 04:01:48;;;;;;;9.23;5.30;;;-4.50;99.90;;;;;;5053594;28;20178;-77
2021/12/22 04:04:17;;;;;;;14.57;6.40;;;-4.50;99.90;;;;;;5035751;28;20669;-77
2021/12/22 04:06:45;;;;;;;11.03;5.80;;;-4.40;99.90;;;;;;5053596;28;20648;-77
2021/12/22 04:09:11;;;;;;;13.63;6.73;;;-4.50;99.90;;;;;;5053541;28;20581;-77
2021/12/22 04:11:37;;;;;;;12.23;7.17;;;-4.50;99.90;;;;;;5035714;28;20266;-77
2021/12/22 04:14:03;;;;;;;10.27;6.00;;;-4.50;99.90;;;;;;5035749;28;20322;-77
2021/12/22 04:16:29;;;;;;;11.63;7.13;;;-4.50;99.90;;;;;;5053551;28;20180;-77
2021/12/22 04:18:55;;;;;;;10.10;6.53;;;-4.50;99.90;;;;;;5053569;28;20183;-77
2021/12/22 04:21:20;;;;;;;14.73;6.27;;;-4.50;99.90;;;;;;5053424;28;20192;-77
2021/12/22 04:23:46;;;;;;;11.60;6.20;;;-4.50;99.90;;;;;;5053351;28;20191;-77
2021/12/22 04:26:12;;;;;;;11.27;6.10;;;-4.60;99.90;;;;;;5035561;28;20701;-77
2021/12/22 04:28:39;;;;;;;10.33;6.67;;;-4.60;99.90;;;;;;5053320;28;20716;-77
2021/12/22 04:31:05;;;;;;;14.37;6.73;;;-4.60;99.90;;;;;;5035550;28;20590;-77
2021/12/22 04:33:30;;;;;;;12.47;6.33;;;-4.50;99.90;;;;;;5053345;28;20172;-77
2021/12/22 04:35:56;;;;;;;12.43;6.50;;;-4.60;99.90;;;;;;5053526;28;20230;-77
2021/12/22 04:38:22;;;;;;;11.23;6.23;;;-4.60;99.90;;;;;;5053504;28;20186;-78
2021/12/22 04:40:48;;;;;;;9.43;5.90;;;-4.60;99.90;;;;;;5053685;28;20203;-77
2021/12/22 04:43:13;;;;;;;13.20;6.83;;;-4.60;99.90;;;;;;5036226;28;20218;-77
2021/12/22 04:45:39;;;;;;;12.73;6.43;;;-4.60;99.90;;;;;;5055833;28;20207;-77
2021/12/22 04:48:05;;;;;;;12.10;6.17;;;-4.60;99.90;;;;;;5054602;28;20363;-77
2021/12/22 04:50:32;;;;;;;12.13;6.57;;;-4.70;99.90;;;;;;5053840;28;20280;-78
2021/12/22 04:53:10;;;;;;;10.67;6.43;;;-4.70;99.90;;;;;;5035246;28;20233;-78
2021/12/22 04:55:35;;;;;;;15.00;7.20;;;-4.70;99.90;;;;;;5035050;28;20219;-78
2021/12/22 04:58:01;;;;;;;13.03;6.97;;;-4.70;99.90;;;;;;5053124;28;20172;-78
2021/12/22 05:00:30;;;;;;;11.97;6.37;;;-4.70;99.90;;;;;;5052809;28;20197;-78
2021/12/22 05:02:57;;;;;;;11.03;6.67;;;-4.70;99.90;;;;;;5053129;28;20226;-78
2021/12/22 05:05:23;;;;;;;15.47;6.90;;;-4.70;99.90;;;;;;5053398;28;20230;-78
2021/12/22 05:07:49;;;;;;;14.60;7.40;;;-4.70;99.90;;;;;;5035929;28;20274;-78
2021/12/22 05:10:15;;;;;;;12.67;7.23;;;-4.70;99.90;;;;;;5053890;28;20286;-79
2021/12/22 05:12:42;;;;;;;9.77;6.20;;;-4.70;99.90;;;;;;5058111;28;20179;-79
2021/12/22 05:15:09;;;;;;;11.30;6.80;;;-4.70;99.90;;;;;;5057599;28;20202;-78
2021/12/22 05:18:00;;;;;;;10.50;5.90;;;-4.80;99.90;;;;;;5057969;28;20233;-78
2021/12/22 05:20:24;;;;;;;10.80;6.00;;;-4.70;99.90;;;;;;5057170;28;20661;-78
2021/12/22 05:22:50;;;;;;;10.80;6.27;;;-4.70;99.90;;;;;;5040541;28;20194;-79
2021/12/22 05:25:16;;;;;;;12.53;6.63;;;-4.70;99.90;;;;;;5040502;28;20215;-78
2021/12/22 05:27:41;;;;;;;12.67;6.73;;;-4.70;99.90;;;;;;5040586;28;20193;-79
2021/12/22 05:30:08;;;;;;;11.17;7.10;;;-4.70;99.90;;;;;;5058232;28;20256;-78
2021/12/22 05:32:35;;;;;;;11.17;6.43;;;-4.80;99.90;;;;;;5057487;28;20191;-78
2021/12/22 05:35:04;;;;;;;9.00;6.27;;;-4.80;99.90;;;;;;5056958;28;20576;-79
2021/12/22 05:37:29;;;;;;;10.40;6.93;;;-4.70;99.90;;;;;;5039110;28;20630;-79
2021/12/22 05:39:56;;;;;;;11.80;6.30;;;-4.70;99.90;;;;;;5038731;28;20195;-78
2021/12/22 05:42:26;;;;;;;10.37;6.33;;;-4.80;99.90;;;;;;5038846;28;20187;-78
2021/12/22 05:44:52;;;;;;;11.67;6.30;;;-4.70;99.90;;;;;;5056401;28;20214;-78
2021/12/22 05:47:17;;;;;;;11.53;7.10;;;-4.70;99.90;;;;;;5056549;28;20649;-78
2021/12/22 05:49:44;;;;;;;13.37;7.60;;;-4.80;99.90;;;;;;5038429;28;20203;-77
2021/12/22 05:52:10;;;;;;;12.20;7.20;;;-4.70;99.90;;;;;;5056417;28;20253;-77
2021/12/22 05:54:39;;;;;;;12.63;6.90;;;-4.80;99.90;;;;;;5038172;28;20203;-77
2021/12/22 05:57:04;;;;;;;10.90;7.00;;;-4.80;99.90;;;;;;5056029;28;20255;-77
2021/12/22 05:59:30;;;;;;;12.33;7.87;;;-4.80;99.90;;;;;;5055854;28;20203;-77
2021/12/22 06:01:56;;;;;;;14.90;7.77;;;-4.80;99.90;;;;;;5037939;28;20191;-77
2021/12/22 06:04:22;;;;;;;11.33;7.30;;;-4.80;99.90;;;;;;5055477;28;20219;-78
2021/12/22 06:06:47;;;;;;;11.90;6.97;;;-4.80;99.90;;;;;;5055509;28;20250;-77
2021/12/22 06:09:13;;;;;;;11.70;6.53;;;-4.80;99.90;;;;;;5054835;28;20743;-77
2021/12/22 06:11:38;;;;;;;12.30;7.13;;;-4.80;99.90;;;;;;5037472;28;20187;-77
2021/12/22 06:14:04;;;;;;;11.27;6.93;;;-4.80;99.90;;;;;;5055339;28;20194;-77
2021/12/22 06:16:30;;;;;;;13.30;7.43;;;-4.80;99.90;;;;;;5055754;28;20620;-77
2021/12/22 06:19:01;;;;;;;13.33;6.63;;;-4.80;99.90;;;;;;5037498;28;20188;-77
2021/12/22 06:21:26;;;;;;;11.03;6.70;;;-4.80;99.90;;;;;;5037479;28;20248;-77
2021/12/22 06:23:52;;;;;;;12.00;7.07;;;-4.80;99.90;;;;;;5037233;28;20716;-77
2021/12/22 06:26:18;;;;;;;13.67;6.93;;;-4.80;99.90;;;;;;5055235;28;20233;-76
2021/12/22 06:28:43;;;;;;;14.87;6.80;;;-4.80;99.90;;;;;;5055236;28;20315;-76
2021/12/22 06:31:09;;;;;;;10.33;6.63;;;-4.70;99.90;;;;;;5037263;28;20270;-77
2021/12/22 06:33:35;;;;;;;13.13;7.30;;;-4.80;99.90;;;;;;5055182;28;20187;-77
2021/12/22 06:36:00;;;;;;;12.60;6.87;;;-4.80;99.90;;;;;;5055097;28;20603;-76
2021/12/22 06:38:26;;;;;;;13.07;6.77;;;-4.80;99.90;;;;;;5055522;28;20271;-77
2021/12/22 06:40:51;;;;;;;12.93;7.23;;;-4.70;99.90;;;;;;5055061;28;20195;-76
2021/12/22 06:43:18;;;;;;;10.90;6.37;;;-4.70;99.90;;;;;;5037118;28;20602;-76
2021/12/22 06:45:44;;;;;;;11.50;6.73;;;-4.70;99.90;;;;;;5054903;28;20207;-76
2021/12/22 06:48:09;;;;;;;9.80;6.13;;;-4.60;99.90;;;;;;5054909;28;20191;-76
2021/12/22 06:50:35;;;;;;;12.93;6.80;;;-4.70;99.90;;;;;;5036930;28;20266;-76
2021/12/22 06:53:01;;;;;;;9.87;6.10;;;-4.70;99.90;;;;;;5036975;28;20598;-76
2021/12/22 06:55:26;;;;;;;9.53;5.93;;;-4.70;99.90;;;;;;5054811;28;20739;-77
2021/12/22 06:57:53;;;;;;;9.43;5.57;;;-4.70;99.90;;;;;;5036867;28;20184;-76
2021/12/22 07:00:19;;;;;;;12.70;6.00;;;-4.60;99.90;;;;;;5036841;28;20652;-77
2021/12/22 07:02:44;;;;;;;10.90;5.63;;;-4.60;99.90;;;;;;5036831;28;20183;-76
2021/12/22 07:05:11;;;;;;;9.83;5.50;;;-4.60;99.90;;;;;;5082266;23;20692;-78
2021/12/22 07:07:38;;;;;;;8.73;5.77;;;-4.60;99.90;;;;;;5062667;28;20546;-77
2021/12/22 07:10:07;;;;;;;10.77;5.53;;;-4.60;99.90;;;;;;5075673;28;20252;-78
2021/12/22 07:12:34;;;;;;;8.33;4.97;;;-4.60;99.90;;;;;;5057013;28;20176;-78
2021/12/22 07:14:59;;;;;;;7.20;4.67;;;-4.50;99.90;;;;;;5075029;28;20619;-78
2021/12/22 07:17:25;;;;;;;11.10;4.87;;;-4.50;99.90;;;;;;5057267;28;20178;-78
2021/12/22 07:19:50;;;;;;;10.67;5.13;;;-4.40;99.90;;;;;;5055857;28;20179;-77
2021/12/22 07:22:16;;;;;;;6.87;4.73;;;-4.40;99.90;;;;;;5056788;28;20229;-77
2021/12/22 07:24:42;;;;;;;8.87;5.40;;;-4.20;99.90;;;;;;5074636;28;20232;-78
2021/12/22 07:27:07;;;;;;;8.67;5.93;;;-4.10;99.90;;;;;;5074519;28;20207;-78
2021/12/22 07:29:33;;;;;;;9.20;5.37;;;-4.10;99.90;;;;;;5056446;28;20201;-78
2021/12/22 07:31:58;;;;;;;11.30;6.60;;;-3.90;99.90;;;;;;5074556;28;20178;-78
2021/12/22 07:34:38;;;;;;;8.13;5.53;;;-3.90;99.90;;;;;;5073591;28;20782;-77
2021/12/22 07:37:09;;;;;;;11.27;6.03;;;-3.80;99.90;;;;;;5074772;28;20167;-77
2021/12/22 07:39:34;;;;;;;11.33;6.00;;;-3.70;99.90;;;;;;5074833;28;20182;-78
2021/12/22 07:42:00;;;;;;;8.90;5.10;;;-3.60;99.90;;;;;;5075071;28;20183;-78
2021/12/22 07:44:26;;;;;;;12.60;6.17;;;-3.50;99.90;;;;;;5079340;28;20182;-77
2021/12/22 07:46:51;;;;;;;10.47;5.20;;;-3.40;99.90;;;;;;5089908;28;20191;-80
2021/12/22 07:49:17;;;;;;;9.70;5.27;;;-3.40;99.90;;;;;;5087916;28;20217;-77
2021/12/22 07:51:42;;;;;;;10.37;5.30;;;-3.30;99.90;;;;;;5070354;28;20271;-77
2021/12/22 07:54:09;;;;;;;8.93;5.03;;;-3.20;99.90;;;;;;5070045;28;20187;-77
2021/12/22 07:56:34;;;;;;;11.50;5.50;;;-3.20;99.90;;;;;;5089612;28;20266;-77
2021/12/22 07:59:00;;;;;;;9.20;5.47;;;-3.10;99.90;;;;;;5077456;28;20167;-78
2021/12/22 08:01:25;;;;;;;12.73;5.40;;;-3.10;99.90;;;;;;5092145;28;20166;-78
2021/12/22 08:03:51;;;;;;;7.80;4.97;;;-3.00;99.90;;;;;;5062410;28;20190;-79
2021/12/22 08:06:16;;;;;;;11.57;5.40;;;-3.00;99.90;;;;;;5078164;28;20344;-79
2021/12/22 08:08:42;;;;;;;14.93;5.77;;;-2.90;99.90;;;;;;5074102;28;20186;-77
2021/12/22 08:11:07;;;;;;;7.23;4.97;;;-2.80;99.90;;;;;;5055530;28;20183;-77
2021/12/22 08:13:34;;;;;;;7.50;5.10;;;-2.80;99.90;;;;;;5054956;28;20202;-77
2021/12/22 08:16:00;;;;;;;6.90;5.10;;;-2.70;99.90;;;;;;5054945;28;20688;-77
2021/12/22 08:18:26;;;;;;;13.40;5.87;;;-2.60;99.90;;;;;;5073050;28;20228;-77
2021/12/22 08:20:52;;;;;;;13.23;6.10;;;-2.60;99.90;;;;;;5055038;28;20612;-77
2021/12/22 08:23:18;;;;;;;12.00;5.63;;;-2.50;99.90;;;;;;5073052;28;20184;-77
2021/12/22 08:25:45;;;;;;;7.90;5.30;;;-2.50;99.90;;;;;;5055005;28;20203;-76
2021/12/22 08:28:10;;;;;;;9.40;5.63;;;-2.50;99.90;;;;;;5072332;28;20240;-77
2021/12/22 08:30:37;;;;;;;10.57;7.70;;;-2.40;99.90;;;;;;5055146;28;20211;-77
2021/12/22 08:33:09;;;;;;;9.57;6.37;;;-2.40;99.90;;;;;;5055368;28;20610;-77
2021/12/22 08:38:50;;;;;;;12.23;6.40;;;-2.40;99.90;;;;;;5073190;28;20189;-77
2021/12/22 08:41:06;;;;;;;10.63;5.90;;;-2.30;99.90;;;;;;5073230;28;20579;-77
2021/12/22 08:43:32;;;;;;;11.10;6.57;;;-2.30;99.90;;;;;;5054937;28;20179;-77
2021/12/22 08:45:58;;;;;;;14.50;6.77;;;-2.20;99.90;;;;;;5072875;28;20227;-76
2021/12/22 08:48:23;;;;;;;12.57;6.47;;;-2.20;99.90;;;;;;5072894;28;20525;-77
2021/12/22 08:50:49;;;;;;;11.50;6.53;;;-2.10;99.90;;;;;;5054710;28;20200;-77
2021/12/22 08:53:14;;;;;;;9.90;6.60;;;-2.10;99.90;;;;;;5072961;28;20171;-77
2021/12/22 08:55:40;;;;;;;11.40;6.40;;;-2.00;99.90;;;;;;5055009;28;20200;-76
2021/12/22 08:58:05;;;;;;;8.17;5.70;;;-2.00;99.90;;;;;;5072965;28;20176;-76
2021/12/22 09:00:33;;;;;;;11.20;6.30;;;-2.00;99.90;;;;;;5072811;28;20646;-76
2021/12/22 09:02:59;;;;;;;13.93;7.13;;;-1.90;99.90;;;;;;5072819;28;20182;-76
2021/12/22 09:05:24;;;;;;;10.80;6.10;;;-1.80;99.90;;;;;;5072574;28;20693;-76
2021/12/22 09:07:51;;;;;;;10.30;6.43;;;-1.80;99.90;;;;;;5072992;28;20198;-76
2021/12/22 09:10:17;;;;;;;13.60;6.80;;;-1.80;99.90;;;;;;5072695;28;20195;-76
2021/12/22 09:12:42;;;;;;;7.83;5.77;;;-1.70;99.90;;;;;;5072691;28;20175;-76
2021/12/22 09:15:08;;;;;;;11.40;6.53;;;-1.70;99.90;;;;;;5072690;28;20274;-76
2021/12/22 09:17:34;;;;;;;9.53;6.60;;;-1.60;99.90;;;;;;5054908;28;20214;-76
2021/12/22 09:20:00;;;;;;;10.67;6.80;;;-1.60;99.90;;;;;;5072573;28;20191;-75
2021/12/22 09:22:26;;;;;;;8.43;6.20;;;-1.50;99.90;;;;;;5072539;28;20259;-76
2021/12/22 09:24:52;;;;;;;10.30;6.10;;;-1.50;99.90;;;;;;5054488;28;20295;-76
2021/12/22 09:27:18;;;;;;;12.27;6.10;;;-1.50;99.90;;;;;;5054550;28;20220;-76
2021/12/22 09:29:43;;;;;;;9.53;6.07;;;-1.40;99.90;;;;;;5054476;28;20211;-76
2021/12/22 09:32:14;;;;;;;8.30;6.23;;;-1.40;99.90;;;;;;5072502;28;20182;-76
2021/12/22 09:34:41;;;;;;;14.10;7.07;;;-1.40;99.90;;;;;;5072729;28;20210;-76
2021/12/22 09:37:06;;;;;;;9.47;6.60;;;-1.30;99.90;;;;;;5054523;28;20177;-76
2021/12/22 09:39:32;;;;;;;15.83;6.80;;;-1.20;99.90;;;;;;5072432;28;20180;-76
2021/12/22 09:41:57;;;;;;;9.53;6.53;;;-1.20;99.90;;;;;;5072375;28;20193;-76
2021/12/22 09:44:24;;;;;;;10.10;6.33;;;-1.20;99.90;;;;;;5071312;28;20188;-76
2021/12/22 09:46:53;;;;;;;8.33;6.70;;;-1.10;99.90;;;;;;5072118;28;20217;-76
2021/12/22 09:52:26;;;;;;;11.03;6.60;;;-1.00;99.90;;;;;;5048691;28;20567;-76
2021/12/22 09:54:54;;;;;;;9.60;6.57;;;-0.90;99.90;;;;;;5072220;28;20196;-76
2021/12/22 09:57:21;;;;;;;11.23;7.77;;;-0.90;99.90;;;;;;5055261;28;20191;-76
2021/12/22 09:59:48;;;;;;;13.80;10.17;;;-0.80;99.90;;;;;;5075838;28;20187;-76
2021/12/22 10:02:17;;;;;;;11.73;7.57;;;-0.70;99.90;;;;;;5075988;28;20180;-76
2021/12/22 10:04:43;;;;;;;12.03;7.30;;;-0.60;99.90;;;;;;5057932;28;20613;-76
2021/12/22 10:07:16;;;;;;;10.77;6.87;;;-0.60;99.90;;;;;;5076877;28;20633;-77
2021/12/22 10:09:44;;;;;;;11.50;6.83;;;-0.50;99.90;;;;;;5077293;28;20193;-77
2021/12/22 10:12:18;;;;;;;11.63;6.57;;;-0.40;99.90;;;;;;5058052;28;20184;-76
2021/12/22 10:14:59;;;;;;;11.00;6.53;;;-0.30;99.90;;;;;;5075731;28;20175;-77
2021/12/22 10:17:38;;;;;;;11.53;6.17;;;-0.30;99.90;;;;;;5057739;28;20174;-77
2021/12/22 10:20:11;;;;;;;9.63;6.77;;;-0.30;99.90;;;;;;5057807;28;20229;-76
2021/12/22 10:22:40;;;;;;;12.57;6.73;;;-0.20;99.90;;;;;;5075934;28;20192;-77
2021/12/22 10:25:18;;;;;;;10.73;6.60;;;-0.10;99.90;;;;;;5074713;28;20196;-77
2021/12/22 10:27:55;;;;;;;10.17;6.83;;;-0.10;99.90;;;;;;5075543;28;20161;-77
2021/12/22 10:30:24;;;;;;;10.63;6.13;;;-0.10;99.90;;;;;;5075867;28;20196;-77
2021/12/22 10:33:02;;;;;;;14.33;6.53;;;0.00;99.90;;;;;;5076038;28;20173;-76
2021/12/22 10:35:33;;;;;;;9.47;6.53;;;0.00;99.90;;;;;;5057652;28;20197;-76
2021/12/22 10:38:00;;;;;;;10.97;6.90;;;0.10;99.90;;;;;;5075548;28;20173;-76
2021/12/22 10:40:29;;;;;;;9.87;6.40;;;0.10;99.90;;;;;;5057404;28;20198;-76
2021/12/22 10:42:56;;;;;;;10.60;7.07;;;0.10;99.90;;;;;;5075782;28;20243;-76
2021/12/22 10:45:24;;;;;;;8.80;6.50;;;0.20;99.90;;;;;;5076134;28;20280;-77
2021/12/22 10:50:41;;;;;;;9.13;5.60;;;0.30;99.90;;;;;;5074969;28;20223;-76
2021/12/22 10:53:08;;;;;;;10.13;6.10;;;0.30;99.90;;;;;;5075016;28;20180;-77
2021/12/22 10:55:40;;;;;;;12.27;6.33;;;0.40;99.90;;;;;;5074856;28;20259;-77
2021/12/22 10:58:19;;;;;;;9.40;7.10;;;0.40;99.90;;;;;;5075007;28;20667;-77
2021/12/22 11:00:59;;;;;;;9.77;6.63;;;0.40;99.90;;;;;;5075140;28;20182;-77
2021/12/22 11:03:35;;;;;;;11.37;6.27;;;0.50;99.90;;;;;;5074858;28;20635;-76
2021/12/22 11:06:03;;;;;;;8.70;6.40;;;0.50;99.90;;;;;;5074473;28;20218;-77
2021/12/22 11:08:28;;;;;;;9.60;6.50;;;0.60;99.90;;;;;;5055342;28;20256;-77
2021/12/22 11:10:54;;;;;;;10.00;6.30;;;0.70;99.90;;;;;;5073585;28;20206;-77
2021/12/22 11:13:22;;;;;;;10.03;5.60;;;0.70;99.90;;;;;;5056525;28;20183;-77
2021/12/22 11:15:49;;;;;;;8.03;5.77;;;0.70;99.90;;;;;;5074926;28;20682;-77
2021/12/22 11:18:29;;;;;;;8.37;6.90;;;0.70;99.90;;;;;;5074490;28;20205;-77
2021/12/22 11:21:23;;;;;;;7.73;5.50;;;0.90;99.90;;;;;;5074683;28;20289;-78
2021/12/22 11:23:49;;;;;;;9.53;6.10;;;0.90;99.90;;;;;;5074532;28;20173;-76
2021/12/22 11:26:15;;;;;;;10.23;6.10;;;0.90;99.90;;;;;;5056429;28;20202;-77
2021/12/22 11:28:42;;;;;;;9.20;5.53;;;1.00;99.90;;;;;;5056285;28;20193;-76
2021/12/22 11:31:09;;;;;;;12.17;5.90;;;1.10;99.90;;;;;;5056251;28;20276;-76
2021/12/22 11:33:35;;;;;;;8.93;6.63;;;1.10;99.90;;;;;;5074263;28;20186;-76
2021/12/22 11:36:02;;;;;;;10.13;6.60;;;1.10;99.90;;;;;;5056195;28;20233;-76
2021/12/22 11:38:30;;;;;;;8.77;5.77;;;1.10;99.90;;;;;;5074070;28;20173;-76
2021/12/22 11:41:09;;;;;;;11.23;6.00;;;1.20;99.90;;;;;;5056068;28;20553;-76
2021/12/22 11:43:37;;;;;;;6.27;5.20;;;1.20;99.90;;;;;;5074189;28;20154;-76
2021/12/22 11:46:04;;;;;;;7.83;6.00;;;1.20;99.90;;;;;;5073796;28;20214;-76
2021/12/22 11:48:31;;;;;;;9.30;6.13;;;1.20;99.90;;;;;;5074000;28;20514;-76
2021/12/22 11:50:57;;;;;;;10.30;6.80;;;1.30;99.90;;;;;;5055783;28;20210;-76
2021/12/22 11:53:23;;;;;;;9.63;6.17;;;1.30;99.90;;;;;;5073790;28;20232;-76
2021/12/22 11:55:57;;;;;;;8.10;5.73;;;1.30;99.90;;;;;;5073591;28;20205;-76
2021/12/22 11:58:25;;;;;;;8.77;5.67;;;1.30;99.90;;;;;;5055768;28;20264;-76
2021/12/22 12:00:53;;;;;;;14.60;5.90;;;1.40;99.90;;;;;;5073498;28;20177;-76
2021/12/22 12:03:30;;;;;;;8.03;5.57;;;1.40;99.90;;;;;;5055589;28;20663;-76
2021/12/22 12:06:17;;;;;;;11.47;5.70;;;1.40;99.90;;;;;;5055397;28;20229;-76
2021/12/22 12:08:55;;;;;;;9.33;5.80;;;1.50;99.90;;;;;;5073529;28;20223;-76
2021/12/22 12:11:52;;;;;;;8.47;5.73;;;1.50;99.90;;;;;;5055574;28;20272;-76
2021/12/22 12:15:02;;;;;;;8.60;5.67;;;1.50;99.90;;;;;;5056079;28;20174;-76
2021/12/22 12:23:26;;;;;;;8.73;5.83;;;1.60;99.90;;;;;;5074418;28;20208;-76
2021/12/22 12:25:52;;;;;;;8.07;5.83;;;1.60;99.90;;;;;;5073266;28;20202;-76
2021/12/22 12:28:19;;;;;;;6.57;5.50;;;1.60;99.90;;;;;;5073420;28;20186;-77
2021/12/22 12:30:50;;;;;;;6.37;5.53;;;1.60;99.90;;;;;;5072983;28;20199;-76
2021/12/22 12:33:30;;;;;;;8.27;6.50;;;1.60;99.90;;;;;;5074558;28;20297;-77
2021/12/22 12:35:59;;;;;;;8.63;6.03;;;1.60;99.90;;;;;;5073750;28;20204;-76
2021/12/22 12:38:55;;;;;;;8.43;6.17;;;1.70;99.90;;;;;;5073535;28;20171;-77
2021/12/22 12:41:28;;;;;;;11.23;6.13;;;1.70;99.90;;;;;;5073123;28;20170;-76
2021/12/22 12:44:00;;;;;;;10.13;6.03;;;1.70;99.90;;;;;;5073041;28;20155;-76
2021/12/22 12:46:38;;;;;;;7.83;5.93;;;1.70;99.90;;;;;;5072931;28;20205;-76
2021/12/22 12:49:03;;;;;;;9.90;6.27;;;1.80;99.90;;;;;;5073085;28;20162;-77
2021/12/22 12:51:34;;;;;;;12.07;5.97;;;1.80;99.90;;;;;;5073020;28;20230;-76
2021/12/22 12:54:08;;;;;;;11.60;6.80;;;1.80;99.90;;;;;;5073401;28;20250;-77
2021/12/22 12:56:38;;;;;;;10.80;6.27;;;1.90;99.90;;;;;;5073801;28;20556;-77
2021/12/22 12:59:08;;;;;;;9.13;6.10;;;1.80;99.90;;;;;;5073406;28;20309;-77
2021/12/22 13:01:52;;;;;;;10.63;6.07;;;1.90;99.90;;;;;;5072775;28;20682;-76
2021/12/22 13:04:34;;;;;;;8.10;6.43;;;1.90;99.90;;;;;;5071355;28;20241;-77
2021/12/22 13:07:00;;;;;;;10.57;6.27;;;2.00;99.90;;;;;;5071378;28;20213;-76